sensor_id;sensor_type;location;lat;lon;timestamp;P1;durP1;ratioP1;P2;durP2;ratioP2
8333;SDS011;4204;43.004;23.052;2023-06-22T00:01:47;9.80;;;8.67;;
8333;SDS011;4204;43.004;23.052;2023-06-22T00:04:15;11.40;;;9.43;;
8333;SDS011;4204;43.004;23.052;2023-06-22T00:06:43;9.50;;;8.60;;
8333;SDS011;4204;43.004;23.052;2023-06-22T00:09:12;10.20;;;9.03;;
8333;SDS011;4204;43.004;23.052;2023-06-22T00:11:39;10.17;;;8.60;;
8333;SDS011;4204;43.004;23.052;2023-06-22T00:14:07;10.17;;;9.17;;
8333;SDS011;4204;43.004;23.052;2023-06-22T00:16:35;10.17;;;9.17;;
8333;SDS011;4204;43.004;23.052;2023-06-22T00:19:03;10.80;;;9.70;;
8333;SDS011;4204;43.004;23.052;2023-06-22T00:21:31;11.43;;;9.63;;
8333;SDS011;4204;43.004;23.052;2023-06-22T00:23:59;12.30;;;9.30;;
8333;SDS011;4204;43.004;23.052;2023-06-22T00:26:28;12.23;;;9.87;;
8333;SDS011;4204;43.004;23.052;2023-06-22T00:28:57;13.73;;;9.73;;
8333;SDS011;4204;43.004;23.052;2023-06-22T00:31:24;11.23;;;9.43;;
8333;SDS011;4204;43.004;23.052;2023-06-22T00:33:54;12.67;;;9.83;;
8333;SDS011;4204;43.004;23.052;2023-06-22T00:36:21;11.77;;;9.80;;
8333;SDS011;4204;43.004;23.052;2023-06-22T00:38:50;11.57;;;10.03;;
8333;SDS011;4204;43.004;23.052;2023-06-22T00:41:18;11.77;;;10.57;;
8333;SDS011;4204;43.004;23.052;2023-06-22T00:43:47;11.50;;;10.00;;
8333;SDS011;4204;43.004;23.052;2023-06-22T00:46:15;12.23;;;9.70;;
8333;SDS011;4204;43.004;23.052;2023-06-22T00:48:43;11.30;;;10.10;;
8333;SDS011;4204;43.004;23.052;2023-06-22T00:51:11;11.47;;;9.73;;
8333;SDS011;4204;43.004;23.052;2023-06-22T00:53:38;10.17;;;9.17;;
8333;SDS011;4204;43.004;23.052;2023-06-22T00:56:07;12.73;;;9.67;;
8333;SDS011;4204;43.004;23.052;2023-06-22T00:58:36;11.57;;;9.90;;
8333;SDS011;4204;43.004;23.052;2023-06-22T01:01:05;12.60;;;10.37;;
8333;SDS011;4204;43.004;23.052;2023-06-22T01:03:32;10.93;;;9.77;;
8333;SDS011;4204;43.004;23.052;2023-06-22T01:06:06;11.13;;;9.77;;
8333;SDS011;4204;43.004;23.052;2023-06-22T01:08:38;13.33;;;10.07;;
8333;SDS011;4204;43.004;23.052;2023-06-22T01:11:16;11.67;;;9.40;;
8333;SDS011;4204;43.004;23.052;2023-06-22T01:13:47;11.07;;;9.97;;
8333;SDS011;4204;43.004;23.052;2023-06-22T01:16:23;12.30;;;8.97;;
8333;SDS011;4204;43.004;23.052;2023-06-22T01:18:55;12.00;;;9.07;;
8333;SDS011;4204;43.004;23.052;2023-06-22T01:21:24;10.73;;;8.90;;
8333;SDS011;4204;43.004;23.052;2023-06-22T01:23:57;11.10;;;9.43;;
8333;SDS011;4204;43.004;23.052;2023-06-22T01:26:37;10.07;;;8.97;;
8333;SDS011;4204;43.004;23.052;2023-06-22T01:29:11;12.90;;;9.77;;
8333;SDS011;4204;43.004;23.052;2023-06-22T01:31:41;12.03;;;9.80;;
8333;SDS011;4204;43.004;23.052;2023-06-22T01:34:11;10.80;;;9.67;;
8333;SDS011;4204;43.004;23.052;2023-06-22T01:36:41;11.43;;;10.17;;
8333;SDS011;4204;43.004;23.052;2023-06-22T01:39:10;11.17;;;9.90;;
8333;SDS011;4204;43.004;23.052;2023-06-22T01:41:38;11.43;;;9.90;;
8333;SDS011;4204;43.004;23.052;2023-06-22T01:44:10;14.23;;;9.90;;
8333;SDS011;4204;43.004;23.052;2023-06-22T01:46:39;11.40;;;9.47;;
8333;SDS011;4204;43.004;23.052;2023-06-22T01:49:07;11.23;;;9.70;;
8333;SDS011;4204;43.004;23.052;2023-06-22T01:51:36;10.03;;;9.03;;
8333;SDS011;4204;43.004;23.052;2023-06-22T01:54:05;13.60;;;9.67;;
8333;SDS011;4204;43.004;23.052;2023-06-22T01:56:33;9.97;;;8.90;;
8333;SDS011;4204;43.004;23.052;2023-06-22T01:59:03;9.90;;;8.87;;
8333;SDS011;4204;43.004;23.052;2023-06-22T02:01:40;10.07;;;9.07;;
8333;SDS011;4204;43.004;23.052;2023-06-22T02:04:12;10.63;;;9.53;;
8333;SDS011;4204;43.004;23.052;2023-06-22T02:06:45;10.77;;;9.30;;
8333;SDS011;4204;43.004;23.052;2023-06-22T02:09:16;10.13;;;9.13;;
8333;SDS011;4204;43.004;23.052;2023-06-22T02:11:45;11.53;;;10.10;;
8333;SDS011;4204;43.004;23.052;2023-06-22T02:14:15;10.83;;;9.73;;
8333;SDS011;4204;43.004;23.052;2023-06-22T02:16:45;11.50;;;10.30;;
8333;SDS011;4204;43.004;23.052;2023-06-22T02:19:13;11.50;;;10.00;;
8333;SDS011;4204;43.004;23.052;2023-06-22T02:21:44;14.20;;;10.37;;
8333;SDS011;4204;43.004;23.052;2023-06-22T02:24:13;12.17;;;10.30;;
8333;SDS011;4204;43.004;23.052;2023-06-22T02:26:40;11.03;;;9.93;;
8333;SDS011;4204;43.004;23.052;2023-06-22T02:29:11;11.97;;;10.23;;
8333;SDS011;4204;43.004;23.052;2023-06-22T02:31:39;10.60;;;9.40;;
8333;SDS011;4204;43.004;23.052;2023-06-22T02:34:08;11.97;;;10.13;;
8333;SDS011;4204;43.004;23.052;2023-06-22T02:36:36;10.57;;;9.47;;
8333;SDS011;4204;43.004;23.052;2023-06-22T02:39:04;13.23;;;9.90;;
8333;SDS011;4204;43.004;23.052;2023-06-22T02:41:31;11.87;;;10.23;;
8333;SDS011;4204;43.004;23.052;2023-06-22T02:43:59;12.13;;;10.17;;
8333;SDS011;4204;43.004;23.052;2023-06-22T02:46:27;11.13;;;9.93;;
8333;SDS011;4204;43.004;23.052;2023-06-22T02:48:54;10.70;;;9.60;;
8333;SDS011;4204;43.004;23.052;2023-06-22T02:51:23;13.13;;;10.47;;
8333;SDS011;4204;43.004;23.052;2023-06-22T02:53:51;11.17;;;10.00;;
8333;SDS011;4204;43.004;23.052;2023-06-22T02:56:24;12.07;;;9.50;;
8333;SDS011;4204;43.004;23.052;2023-06-22T02:58:56;11.80;;;10.00;;
8333;SDS011;4204;43.004;23.052;2023-06-22T03:01:27;11.03;;;9.77;;
8333;SDS011;4204;43.004;23.052;2023-06-22T03:03:56;11.33;;;9.67;;
8333;SDS011;4204;43.004;23.052;2023-06-22T03:06:25;10.97;;;9.47;;
8333;SDS011;4204;43.004;23.052;2023-06-22T03:08:57;11.30;;;9.60;;
8333;SDS011;4204;43.004;23.052;2023-06-22T03:11:26;11.17;;;9.73;;
8333;SDS011;4204;43.004;23.052;2023-06-22T03:13:54;14.80;;;10.57;;
8333;SDS011;4204;43.004;23.052;2023-06-22T03:16:22;12.37;;;10.03;;
8333;SDS011;4204;43.004;23.052;2023-06-22T03:18:50;11.20;;;10.10;;
8333;SDS011;4204;43.004;23.052;2023-06-22T03:21:19;12.00;;;10.53;;
8333;SDS011;4204;43.004;23.052;2023-06-22T03:23:48;15.43;;;10.17;;
8333;SDS011;4204;43.004;23.052;2023-06-22T03:26:16;11.77;;;10.53;;
8333;SDS011;4204;43.004;23.052;2023-06-22T03:28:45;11.40;;;10.23;;
8333;SDS011;4204;43.004;23.052;2023-06-22T03:31:13;12.70;;;10.93;;
8333;SDS011;4204;43.004;23.052;2023-06-22T03:33:41;11.77;;;10.50;;
8333;SDS011;4204;43.004;23.052;2023-06-22T03:36:08;11.37;;;10.17;;
8333;SDS011;4204;43.004;23.052;2023-06-22T03:38:36;13.53;;;10.73;;
8333;SDS011;4204;43.004;23.052;2023-06-22T03:41:05;13.50;;;10.60;;
8333;SDS011;4204;43.004;23.052;2023-06-22T03:43:34;12.50;;;10.23;;
8333;SDS011;4204;43.004;23.052;2023-06-22T03:46:03;11.33;;;10.10;;
8333;SDS011;4204;43.004;23.052;2023-06-22T03:48:31;12.67;;;11.30;;
8333;SDS011;4204;43.004;23.052;2023-06-22T03:50:59;15.27;;;11.80;;
8333;SDS011;4204;43.004;23.052;2023-06-22T03:53:27;12.47;;;11.17;;
8333;SDS011;4204;43.004;23.052;2023-06-22T03:55:55;13.77;;;11.90;;
8333;SDS011;4204;43.004;23.052;2023-06-22T03:58:24;11.67;;;10.47;;
8333;SDS011;4204;43.004;23.052;2023-06-22T04:00:52;12.43;;;10.77;;
8333;SDS011;4204;43.004;23.052;2023-06-22T04:03:20;12.23;;;10.50;;
8333;SDS011;4204;43.004;23.052;2023-06-22T04:05:48;13.60;;;10.97;;
8333;SDS011;4204;43.004;23.052;2023-06-22T04:08:16;12.57;;;10.17;;
8333;SDS011;4204;43.004;23.052;2023-06-22T04:10:43;12.53;;;10.43;;
8333;SDS011;4204;43.004;23.052;2023-06-22T04:13:11;11.40;;;9.87;;
8333;SDS011;4204;43.004;23.052;2023-06-22T04:15:40;12.20;;;10.90;;
8333;SDS011;4204;43.004;23.052;2023-06-22T04:18:08;12.77;;;10.50;;
8333;SDS011;4204;43.004;23.052;2023-06-22T04:20:35;14.07;;;11.30;;
8333;SDS011;4204;43.004;23.052;2023-06-22T04:23:03;12.07;;;10.80;;
8333;SDS011;4204;43.004;23.052;2023-06-22T04:25:31;12.83;;;11.20;;
8333;SDS011;4204;43.004;23.052;2023-06-22T04:27:58;13.20;;;11.80;;
8333;SDS011;4204;43.004;23.052;2023-06-22T04:30:29;13.10;;;11.70;;
8333;SDS011;4204;43.004;23.052;2023-06-22T04:32:59;14.03;;;11.90;;
8333;SDS011;4204;43.004;23.052;2023-06-22T04:35:26;13.70;;;12.07;;
8333;SDS011;4204;43.004;23.052;2023-06-22T04:37:58;12.40;;;11.10;;
8333;SDS011;4204;43.004;23.052;2023-06-22T04:40:26;12.17;;;10.97;;
8333;SDS011;4204;43.004;23.052;2023-06-22T04:42:54;13.30;;;11.77;;
8333;SDS011;4204;43.004;23.052;2023-06-22T04:45:22;15.23;;;13.03;;
8333;SDS011;4204;43.004;23.052;2023-06-22T04:47:49;13.63;;;12.23;;
8333;SDS011;4204;43.004;23.052;2023-06-22T04:50:19;15.47;;;12.87;;
8333;SDS011;4204;43.004;23.052;2023-06-22T04:52:47;14.67;;;12.47;;
8333;SDS011;4204;43.004;23.052;2023-06-22T04:55:15;14.23;;;12.67;;
8333;SDS011;4204;43.004;23.052;2023-06-22T04:57:45;13.67;;;12.13;;
8333;SDS011;4204;43.004;23.052;2023-06-22T05:00:15;15.23;;;12.53;;
8333;SDS011;4204;43.004;23.052;2023-06-22T05:02:45;15.10;;;13.43;;
8333;SDS011;4204;43.004;23.052;2023-06-22T05:05:13;15.87;;;14.00;;
8333;SDS011;4204;43.004;23.052;2023-06-22T05:07:43;15.00;;;13.40;;
8333;SDS011;4204;43.004;23.052;2023-06-22T05:10:14;17.47;;;12.97;;
8333;SDS011;4204;43.004;23.052;2023-06-22T05:12:42;15.10;;;13.30;;
8333;SDS011;4204;43.004;23.052;2023-06-22T05:15:10;14.77;;;12.90;;
8333;SDS011;4204;43.004;23.052;2023-06-22T05:17:38;15.67;;;12.67;;
8333;SDS011;4204;43.004;23.052;2023-06-22T05:20:09;14.40;;;12.23;;
8333;SDS011;4204;43.004;23.052;2023-06-22T05:22:37;14.10;;;12.70;;
8333;SDS011;4204;43.004;23.052;2023-06-22T05:25:07;14.13;;;12.63;;
8333;SDS011;4204;43.004;23.052;2023-06-22T05:27:36;14.83;;;11.67;;
8333;SDS011;4204;43.004;23.052;2023-06-22T05:30:06;14.63;;;11.27;;
8333;SDS011;4204;43.004;23.052;2023-06-22T05:32:34;14.53;;;12.17;;
8333;SDS011;4204;43.004;23.052;2023-06-22T05:35:02;12.77;;;11.40;;
8333;SDS011;4204;43.004;23.052;2023-06-22T05:37:31;13.93;;;12.40;;
8333;SDS011;4204;43.004;23.052;2023-06-22T05:39:58;12.63;;;11.33;;
8333;SDS011;4204;43.004;23.052;2023-06-22T05:42:27;14.23;;;11.77;;
8333;SDS011;4204;43.004;23.052;2023-06-22T05:44:55;13.40;;;11.80;;
8333;SDS011;4204;43.004;23.052;2023-06-22T05:47:24;14.00;;;12.03;;
8333;SDS011;4204;43.004;23.052;2023-06-22T05:49:52;13.93;;;12.43;;
8333;SDS011;4204;43.004;23.052;2023-06-22T05:52:20;14.20;;;11.90;;
8333;SDS011;4204;43.004;23.052;2023-06-22T05:54:48;15.17;;;11.80;;
8333;SDS011;4204;43.004;23.052;2023-06-22T05:57:15;13.10;;;11.70;;
8333;SDS011;4204;43.004;23.052;2023-06-22T05:59:44;13.43;;;12.13;;
8333;SDS011;4204;43.004;23.052;2023-06-22T06:02:12;13.63;;;12.27;;
8333;SDS011;4204;43.004;23.052;2023-06-22T06:04:40;13.77;;;12.23;;
8333;SDS011;4204;43.004;23.052;2023-06-22T06:07:07;13.30;;;11.83;;
8333;SDS011;4204;43.004;23.052;2023-06-22T06:09:35;14.10;;;12.67;;
8333;SDS011;4204;43.004;23.052;2023-06-22T06:12:03;19.60;;;15.50;;
8333;SDS011;4204;43.004;23.052;2023-06-22T06:14:31;16.43;;;12.33;;
8333;SDS011;4204;43.004;23.052;2023-06-22T06:17:00;12.00;;;10.80;;
8333;SDS011;4204;43.004;23.052;2023-06-22T06:19:28;13.03;;;10.97;;
8333;SDS011;4204;43.004;23.052;2023-06-22T06:21:56;12.60;;;11.37;;
8333;SDS011;4204;43.004;23.052;2023-06-22T06:24:24;12.57;;;11.30;;
8333;SDS011;4204;43.004;23.052;2023-06-22T06:26:51;13.17;;;11.87;;
8333;SDS011;4204;43.004;23.052;2023-06-22T06:29:19;12.57;;;11.33;;
8333;SDS011;4204;43.004;23.052;2023-06-22T06:31:47;11.70;;;10.40;;
8333;SDS011;4204;43.004;23.052;2023-06-22T06:34:16;11.83;;;10.60;;
8333;SDS011;4204;43.004;23.052;2023-06-22T06:36:44;11.80;;;10.60;;
8333;SDS011;4204;43.004;23.052;2023-06-22T06:39:12;11.30;;;10.20;;
8333;SDS011;4204;43.004;23.052;2023-06-22T06:41:39;13.00;;;10.80;;
8333;SDS011;4204;43.004;23.052;2023-06-22T06:44:14;11.60;;;10.40;;
8333;SDS011;4204;43.004;23.052;2023-06-22T06:46:42;10.70;;;9.70;;
8333;SDS011;4204;43.004;23.052;2023-06-22T06:49:10;11.53;;;10.33;;
8333;SDS011;4204;43.004;23.052;2023-06-22T06:51:39;12.17;;;10.93;;
8333;SDS011;4204;43.004;23.052;2023-06-22T06:54:07;12.23;;;10.07;;
8333;SDS011;4204;43.004;23.052;2023-06-22T06:56:35;13.30;;;10.83;;
8333;SDS011;4204;43.004;23.052;2023-06-22T06:59:02;11.83;;;10.63;;
8333;SDS011;4204;43.004;23.052;2023-06-22T07:01:30;12.57;;;11.27;;
8333;SDS011;4204;43.004;23.052;2023-06-22T07:03:59;13.90;;;11.67;;
8333;SDS011;4204;43.004;23.052;2023-06-22T07:06:27;12.93;;;11.63;;
8333;SDS011;4204;43.004;23.052;2023-06-22T07:08:59;12.33;;;10.93;;
8333;SDS011;4204;43.004;23.052;2023-06-22T07:11:27;12.53;;;11.33;;
8333;SDS011;4204;43.004;23.052;2023-06-22T07:13:55;13.23;;;11.97;;
8333;SDS011;4204;43.004;23.052;2023-06-22T07:16:22;13.67;;;12.10;;
8333;SDS011;4204;43.004;23.052;2023-06-22T07:18:51;15.07;;;12.40;;
8333;SDS011;4204;43.004;23.052;2023-06-22T07:21:19;13.67;;;11.93;;
8333;SDS011;4204;43.004;23.052;2023-06-22T07:23:47;13.87;;;12.13;;
8333;SDS011;4204;43.004;23.052;2023-06-22T07:26:16;12.93;;;11.63;;
8333;SDS011;4204;43.004;23.052;2023-06-22T07:28:44;14.40;;;12.10;;
8333;SDS011;4204;43.004;23.052;2023-06-22T07:31:11;13.23;;;12.00;;
8333;SDS011;4204;43.004;23.052;2023-06-22T07:33:39;13.30;;;12.00;;
8333;SDS011;4204;43.004;23.052;2023-06-22T07:36:07;12.70;;;11.33;;
8333;SDS011;4204;43.004;23.052;2023-06-22T07:38:35;12.93;;;11.67;;
8333;SDS011;4204;43.004;23.052;2023-06-22T07:41:03;13.70;;;12.30;;
8333;SDS011;4204;43.004;23.052;2023-06-22T07:43:33;12.50;;;11.30;;
8333;SDS011;4204;43.004;23.052;2023-06-22T07:46:03;13.47;;;12.07;;
8333;SDS011;4204;43.004;23.052;2023-06-22T07:48:31;13.77;;;12.47;;
8333;SDS011;4204;43.004;23.052;2023-06-22T07:50:59;14.60;;;13.20;;
8333;SDS011;4204;43.004;23.052;2023-06-22T07:53:26;15.80;;;13.17;;
8333;SDS011;4204;43.004;23.052;2023-06-22T07:55:54;14.73;;;13.33;;
8333;SDS011;4204;43.004;23.052;2023-06-22T07:58:22;13.97;;;12.63;;
8333;SDS011;4204;43.004;23.052;2023-06-22T08:00:51;14.87;;;13.13;;
8333;SDS011;4204;43.004;23.052;2023-06-22T08:03:19;15.73;;;14.13;;
8333;SDS011;4204;43.004;23.052;2023-06-22T08:05:46;16.00;;;14.40;;
8333;SDS011;4204;43.004;23.052;2023-06-22T08:08:14;15.63;;;14.03;;
8333;SDS011;4204;43.004;23.052;2023-06-22T08:10:42;15.17;;;13.67;;
8333;SDS011;4204;43.004;23.052;2023-06-22T08:13:10;14.03;;;12.73;;
8333;SDS011;4204;43.004;23.052;2023-06-22T08:15:38;15.07;;;13.57;;
8333;SDS011;4204;43.004;23.052;2023-06-22T08:18:07;13.97;;;12.67;;
8333;SDS011;4204;43.004;23.052;2023-06-22T08:20:34;14.77;;;13.10;;
8333;SDS011;4204;43.004;23.052;2023-06-22T08:23:02;14.07;;;12.77;;
8333;SDS011;4204;43.004;23.052;2023-06-22T08:25:32;15.80;;;14.20;;
8333;SDS011;4204;43.004;23.052;2023-06-22T08:28:00;14.57;;;13.17;;
8333;SDS011;4204;43.004;23.052;2023-06-22T08:30:28;16.10;;;14.37;;
8333;SDS011;4204;43.004;23.052;2023-06-22T08:32:55;15.17;;;13.77;;
8333;SDS011;4204;43.004;23.052;2023-06-22T08:35:25;15.17;;;13.67;;
8333;SDS011;4204;43.004;23.052;2023-06-22T08:37:52;14.67;;;13.17;;
8333;SDS011;4204;43.004;23.052;2023-06-22T08:40:22;14.87;;;13.47;;
8333;SDS011;4204;43.004;23.052;2023-06-22T08:42:50;16.20;;;14.50;;
8333;SDS011;4204;43.004;23.052;2023-06-22T08:45:18;15.87;;;14.23;;
8333;SDS011;4204;43.004;23.052;2023-06-22T08:47:46;15.27;;;13.87;;
8333;SDS011;4204;43.004;23.052;2023-06-22T08:50:14;14.43;;;13.00;;
8333;SDS011;4204;43.004;23.052;2023-06-22T08:52:44;13.27;;;11.87;;
8333;SDS011;4204;43.004;23.052;2023-06-22T08:55:12;14.73;;;13.23;;
8333;SDS011;4204;43.004;23.052;2023-06-22T08:57:40;14.67;;;13.27;;
8333;SDS011;4204;43.004;23.052;2023-06-22T09:00:09;13.47;;;12.07;;
8333;SDS011;4204;43.004;23.052;2023-06-22T09:02:43;13.53;;;12.13;;
8333;SDS011;4204;43.004;23.052;2023-06-22T09:05:10;13.37;;;11.90;;
8333;SDS011;4204;43.004;23.052;2023-06-22T09:07:38;13.13;;;11.93;;
8333;SDS011;4204;43.004;23.052;2023-06-22T09:10:08;11.97;;;10.87;;
8333;SDS011;4204;43.004;23.052;2023-06-22T09:12:35;12.00;;;11.00;;
8333;SDS011;4204;43.004;23.052;2023-06-22T09:15:04;12.63;;;11.53;;
8333;SDS011;4204;43.004;23.052;2023-06-22T09:17:33;12.13;;;10.93;;
8333;SDS011;4204;43.004;23.052;2023-06-22T09:20:03;12.57;;;11.47;;
8333;SDS011;4204;43.004;23.052;2023-06-22T09:22:32;12.27;;;11.10;;
8333;SDS011;4204;43.004;23.052;2023-06-22T09:24:59;12.30;;;11.20;;
8333;SDS011;4204;43.004;23.052;2023-06-22T09:27:30;12.30;;;11.03;;
8333;SDS011;4204;43.004;23.052;2023-06-22T09:29:57;12.83;;;11.37;;
8333;SDS011;4204;43.004;23.052;2023-06-22T09:32:25;12.60;;;11.43;;
8333;SDS011;4204;43.004;23.052;2023-06-22T09:34:53;12.57;;;11.37;;
8333;SDS011;4204;43.004;23.052;2023-06-22T09:37:21;12.77;;;11.57;;
8333;SDS011;4204;43.004;23.052;2023-06-22T09:39:48;12.27;;;11.13;;
8333;SDS011;4204;43.004;23.052;2023-06-22T09:42:16;12.10;;;11.00;;
8333;SDS011;4204;43.004;23.052;2023-06-22T09:44:45;13.23;;;12.03;;
8333;SDS011;4204;43.004;23.052;2023-06-22T09:47:13;12.67;;;11.37;;
8333;SDS011;4204;43.004;23.052;2023-06-22T09:49:41;13.17;;;11.87;;
8333;SDS011;4204;43.004;23.052;2023-06-22T09:52:09;12.07;;;10.83;;
8333;SDS011;4204;43.004;23.052;2023-06-22T09:54:37;14.90;;;11.40;;
8333;SDS011;4204;43.004;23.052;2023-06-22T09:57:05;13.13;;;11.93;;
8333;SDS011;4204;43.004;23.052;2023-06-22T09:59:33;11.50;;;10.40;;
8333;SDS011;4204;43.004;23.052;2023-06-22T10:02:02;14.63;;;11.20;;
8333;SDS011;4204;43.004;23.052;2023-06-22T10:04:30;11.83;;;10.73;;
8333;SDS011;4204;43.004;23.052;2023-06-22T10:06:58;12.77;;;11.57;;
8333;SDS011;4204;43.004;23.052;2023-06-22T10:09:26;12.13;;;10.97;;
8333;SDS011;4204;43.004;23.052;2023-06-22T10:11:54;13.30;;;11.90;;
8333;SDS011;4204;43.004;23.052;2023-06-22T10:14:22;12.20;;;11.00;;
8333;SDS011;4204;43.004;23.052;2023-06-22T10:16:51;13.53;;;11.47;;
8333;SDS011;4204;43.004;23.052;2023-06-22T10:19:21;12.60;;;11.40;;
8333;SDS011;4204;43.004;23.052;2023-06-22T10:21:48;13.43;;;12.13;;
8333;SDS011;4204;43.004;23.052;2023-06-22T10:24:16;14.30;;;11.00;;
8333;SDS011;4204;43.004;23.052;2023-06-22T10:26:44;13.37;;;11.93;;
8333;SDS011;4204;43.004;23.052;2023-06-22T10:29:12;13.90;;;11.73;;
8333;SDS011;4204;43.004;23.052;2023-06-22T10:31:40;14.13;;;11.63;;
8333;SDS011;4204;43.004;23.052;2023-06-22T10:34:07;12.47;;;11.37;;
8333;SDS011;4204;43.004;23.052;2023-06-22T10:36:36;12.67;;;11.37;;
8333;SDS011;4204;43.004;23.052;2023-06-22T10:39:04;13.00;;;11.73;;
8333;SDS011;4204;43.004;23.052;2023-06-22T10:41:32;11.50;;;10.50;;
8333;SDS011;4204;43.004;23.052;2023-06-22T10:44:00;11.90;;;10.77;;
8333;SDS011;4204;43.004;23.052;2023-06-22T10:46:28;11.77;;;10.67;;
8333;SDS011;4204;43.004;23.052;2023-06-22T10:48:56;11.90;;;10.70;;
8333;SDS011;4204;43.004;23.052;2023-06-22T10:51:24;11.90;;;10.80;;
8333;SDS011;4204;43.004;23.052;2023-06-22T10:53:55;11.00;;;10.03;;
8333;SDS011;4204;43.004;23.052;2023-06-22T10:56:23;11.53;;;10.47;;
8333;SDS011;4204;43.004;23.052;2023-06-22T10:58:51;12.67;;;10.63;;
8333;SDS011;4204;43.004;23.052;2023-06-22T11:01:19;10.87;;;9.87;;
8333;SDS011;4204;43.004;23.052;2023-06-22T11:03:47;11.67;;;10.53;;
8333;SDS011;4204;43.004;23.052;2023-06-22T11:06:15;10.83;;;9.83;;
8333;SDS011;4204;43.004;23.052;2023-06-22T11:08:43;11.73;;;10.50;;
8333;SDS011;4204;43.004;23.052;2023-06-22T11:11:13;11.50;;;10.50;;
8333;SDS011;4204;43.004;23.052;2023-06-22T11:13:40;11.37;;;10.27;;
8333;SDS011;4204;43.004;23.052;2023-06-22T11:16:08;11.80;;;10.60;;
8333;SDS011;4204;43.004;23.052;2023-06-22T11:18:36;11.70;;;10.50;;
8333;SDS011;4204;43.004;23.052;2023-06-22T11:21:04;11.23;;;10.13;;
8333;SDS011;4204;43.004;23.052;2023-06-22T11:23:32;12.00;;;10.80;;
8333;SDS011;4204;43.004;23.052;2023-06-22T11:26:00;11.07;;;9.97;;
8333;SDS011;4204;43.004;23.052;2023-06-22T11:28:29;12.10;;;10.90;;
8333;SDS011;4204;43.004;23.052;2023-06-22T11:30:56;10.77;;;9.77;;
8333;SDS011;4204;43.004;23.052;2023-06-22T11:33:24;10.90;;;10.00;;
8333;SDS011;4204;43.004;23.052;2023-06-22T11:35:52;10.80;;;9.90;;
8333;SDS011;4204;43.004;23.052;2023-06-22T11:38:22;12.07;;;10.30;;
8333;SDS011;4204;43.004;23.052;2023-06-22T11:40:50;11.33;;;10.27;;
8333;SDS011;4204;43.004;23.052;2023-06-22T11:43:17;12.23;;;10.67;;
8333;SDS011;4204;43.004;23.052;2023-06-22T11:45:46;12.13;;;11.03;;
8333;SDS011;4204;43.004;23.052;2023-06-22T11:48:14;11.93;;;10.73;;
8333;SDS011;4204;43.004;23.052;2023-06-22T11:50:42;10.83;;;9.93;;
8333;SDS011;4204;43.004;23.052;2023-06-22T11:53:10;11.60;;;10.57;;
8333;SDS011;4204;43.004;23.052;2023-06-22T11:55:37;11.73;;;10.67;;
8333;SDS011;4204;43.004;23.052;2023-06-22T11:58:05;12.83;;;11.40;;
8333;SDS011;4204;43.004;23.052;2023-06-22T12:00:34;11.87;;;10.80;;
8333;SDS011;4204;43.004;23.052;2023-06-22T12:03:04;12.60;;;11.37;;
8333;SDS011;4204;43.004;23.052;2023-06-22T12:05:32;12.43;;;11.13;;
8333;SDS011;4204;43.004;23.052;2023-06-22T12:08:00;11.97;;;10.77;;
8333;SDS011;4204;43.004;23.052;2023-06-22T12:10:27;11.03;;;10.03;;
8333;SDS011;4204;43.004;23.052;2023-06-22T12:12:55;11.90;;;10.70;;
8333;SDS011;4204;43.004;23.052;2023-06-22T12:15:26;12.17;;;11.07;;
8333;SDS011;4204;43.004;23.052;2023-06-22T12:17:54;12.23;;;10.53;;
8333;SDS011;4204;43.004;23.052;2023-06-22T12:20:23;13.03;;;11.67;;
8333;SDS011;4204;43.004;23.052;2023-06-22T12:22:51;13.83;;;11.20;;
8333;SDS011;4204;43.004;23.052;2023-06-22T12:25:20;18.50;;;16.63;;
8333;SDS011;4204;43.004;23.052;2023-06-22T12:27:49;13.67;;;12.37;;
8333;SDS011;4204;43.004;23.052;2023-06-22T12:30:16;13.93;;;12.43;;
8333;SDS011;4204;43.004;23.052;2023-06-22T12:32:44;15.53;;;12.83;;
8333;SDS011;4204;43.004;23.052;2023-06-22T12:35:12;18.50;;;12.73;;
8333;SDS011;4204;43.004;23.052;2023-06-22T12:37:42;16.90;;;13.03;;
8333;SDS011;4204;43.004;23.052;2023-06-22T12:40:11;13.43;;;12.13;;
8333;SDS011;4204;43.004;23.052;2023-06-22T12:42:39;14.43;;;12.60;;
8333;SDS011;4204;43.004;23.052;2023-06-22T12:45:08;13.50;;;12.00;;
8333;SDS011;4204;43.004;23.052;2023-06-22T12:47:36;14.40;;;13.00;;
8333;SDS011;4204;43.004;23.052;2023-06-22T12:50:04;13.33;;;12.03;;
8333;SDS011;4204;43.004;23.052;2023-06-22T12:52:33;13.03;;;11.60;;
8333;SDS011;4204;43.004;23.052;2023-06-22T12:55:02;12.60;;;11.17;;
8333;SDS011;4204;43.004;23.052;2023-06-22T12:57:30;12.70;;;11.40;;
8333;SDS011;4204;43.004;23.052;2023-06-22T12:59:57;12.87;;;11.67;;
8333;SDS011;4204;43.004;23.052;2023-06-22T13:02:27;12.37;;;11.17;;
8333;SDS011;4204;43.004;23.052;2023-06-22T13:04:55;12.50;;;11.30;;
8333;SDS011;4204;43.004;23.052;2023-06-22T13:07:23;9.47;;;8.50;;
8333;SDS011;4204;43.004;23.052;2023-06-22T13:09:50;12.30;;;6.23;;
8333;SDS011;4204;43.004;23.052;2023-06-22T13:12:20;7.47;;;5.80;;
8333;SDS011;4204;43.004;23.052;2023-06-22T13:14:48;9.53;;;6.07;;
8333;SDS011;4204;43.004;23.052;2023-06-22T13:17:16;9.83;;;5.43;;
8333;SDS011;4204;43.004;23.052;2023-06-22T13:19:43;9.60;;;5.90;;
8333;SDS011;4204;43.004;23.052;2023-06-22T13:22:25;7.80;;;5.50;;
8333;SDS011;4204;43.004;23.052;2023-06-22T13:24:55;8.57;;;5.77;;
8333;SDS011;4204;43.004;23.052;2023-06-22T13:27:24;6.93;;;5.70;;
8333;SDS011;4204;43.004;23.052;2023-06-22T13:29:52;7.77;;;5.73;;
8333;SDS011;4204;43.004;23.052;2023-06-22T13:32:20;8.67;;;6.20;;
8333;SDS011;4204;43.004;23.052;2023-06-22T13:34:48;9.27;;;6.57;;
8333;SDS011;4204;43.004;23.052;2023-06-22T13:37:16;11.60;;;6.73;;
8333;SDS011;4204;43.004;23.052;2023-06-22T13:39:44;7.53;;;6.33;;
8333;SDS011;4204;43.004;23.052;2023-06-22T13:42:12;7.53;;;6.40;;
8333;SDS011;4204;43.004;23.052;2023-06-22T13:44:41;9.30;;;5.87;;
8333;SDS011;4204;43.004;23.052;2023-06-22T13:47:09;6.17;;;5.57;;
8333;SDS011;4204;43.004;23.052;2023-06-22T13:49:37;9.13;;;6.60;;
8333;SDS011;4204;43.004;23.052;2023-06-22T13:52:05;7.07;;;5.97;;
8333;SDS011;4204;43.004;23.052;2023-06-22T13:54:36;11.47;;;6.83;;
8333;SDS011;4204;43.004;23.052;2023-06-22T13:57:04;10.20;;;6.60;;
8333;SDS011;4204;43.004;23.052;2023-06-22T13:59:32;8.03;;;6.50;;
8333;SDS011;4204;43.004;23.052;2023-06-22T14:02:01;7.97;;;5.90;;
8333;SDS011;4204;43.004;23.052;2023-06-22T14:04:29;8.03;;;6.13;;
8333;SDS011;4204;43.004;23.052;2023-06-22T14:06:57;8.37;;;5.50;;
8333;SDS011;4204;43.004;23.052;2023-06-22T14:09:25;8.47;;;5.80;;
8333;SDS011;4204;43.004;23.052;2023-06-22T14:11:53;7.73;;;6.10;;
8333;SDS011;4204;43.004;23.052;2023-06-22T14:14:22;7.97;;;6.10;;
8333;SDS011;4204;43.004;23.052;2023-06-22T14:16:50;6.63;;;5.80;;
8333;SDS011;4204;43.004;23.052;2023-06-22T14:19:19;7.53;;;5.90;;
8333;SDS011;4204;43.004;23.052;2023-06-22T14:21:47;9.87;;;6.13;;
8333;SDS011;4204;43.004;23.052;2023-06-22T14:24:15;12.50;;;6.37;;
8333;SDS011;4204;43.004;23.052;2023-06-22T14:26:42;9.27;;;6.50;;
8333;SDS011;4204;43.004;23.052;2023-06-22T14:29:10;8.70;;;6.87;;
8333;SDS011;4204;43.004;23.052;2023-06-22T14:31:38;11.07;;;7.37;;
8333;SDS011;4204;43.004;23.052;2023-06-22T14:34:06;10.00;;;6.63;;
8333;SDS011;4204;43.004;23.052;2023-06-22T14:36:35;7.97;;;6.83;;
8333;SDS011;4204;43.004;23.052;2023-06-22T14:39:03;7.87;;;6.60;;
8333;SDS011;4204;43.004;23.052;2023-06-22T14:41:31;11.23;;;6.40;;
8333;SDS011;4204;43.004;23.052;2023-06-22T14:43:59;8.43;;;6.80;;
8333;SDS011;4204;43.004;23.052;2023-06-22T14:46:26;11.13;;;6.43;;
8333;SDS011;4204;43.004;23.052;2023-06-22T14:48:54;9.20;;;6.90;;